sensor_id;sensor_type;location;lat;lon;timestamp;P1;durP1;ratioP1;P2;durP2;ratioP2
5493;SDS011;2769;49.864;8.656;2023-07-13T00:02:22;2.37;;;1.50;;
5493;SDS011;2769;49.864;8.656;2023-07-13T00:04:50;4.10;;;1.83;;
5493;SDS011;2769;49.864;8.656;2023-07-13T00:07:20;2.83;;;1.50;;
5493;SDS011;2769;49.864;8.656;2023-07-13T00:09:48;5.20;;;1.77;;
5493;SDS011;2769;49.864;8.656;2023-07-13T00:12:26;1.90;;;1.43;;
5493;SDS011;2769;49.864;8.656;2023-07-13T00:14:56;7.03;;;1.40;;
5493;SDS011;2769;49.864;8.656;2023-07-13T00:17:24;2.60;;;1.50;;
5493;SDS011;2769;49.864;8.656;2023-07-13T00:19:53;4.83;;;1.67;;
5493;SDS011;2769;49.864;8.656;2023-07-13T00:22:25;2.20;;;1.70;;
5493;SDS011;2769;49.864;8.656;2023-07-13T00:24:53;2.67;;;1.60;;
5493;SDS011;2769;49.864;8.656;2023-07-13T00:27:22;2.27;;;1.57;;
5493;SDS011;2769;49.864;8.656;2023-07-13T00:29:53;3.73;;;1.53;;
5493;SDS011;2769;49.864;8.656;2023-07-13T00:32:21;3.03;;;1.60;;
5493;SDS011;2769;49.864;8.656;2023-07-13T00:34:51;3.00;;;1.40;;
5493;SDS011;2769;49.864;8.656;2023-07-13T00:37:19;2.40;;;1.53;;
5493;SDS011;2769;49.864;8.656;2023-07-13T00:39:49;2.87;;;1.63;;
5493;SDS011;2769;49.864;8.656;2023-07-13T00:42:17;1.50;;;1.40;;
5493;SDS011;2769;49.864;8.656;2023-07-13T00:47:28;3.40;;;1.80;;
5493;SDS011;2769;49.864;8.656;2023-07-13T00:49:56;1.63;;;1.53;;
5493;SDS011;2769;49.864;8.656;2023-07-13T00:52:26;1.40;;;1.30;;
5493;SDS011;2769;49.864;8.656;2023-07-13T00:54:56;3.30;;;1.67;;
5493;SDS011;2769;49.864;8.656;2023-07-13T00:57:24;6.00;;;1.63;;
5493;SDS011;2769;49.864;8.656;2023-07-13T00:59:52;2.60;;;1.60;;
5493;SDS011;2769;49.864;8.656;2023-07-13T01:02:23;2.03;;;1.67;;
5493;SDS011;2769;49.864;8.656;2023-07-13T01:04:51;4.27;;;1.73;;
5493;SDS011;2769;49.864;8.656;2023-07-13T01:07:19;3.73;;;1.97;;
5493;SDS011;2769;49.864;8.656;2023-07-13T01:09:47;1.90;;;1.70;;
5493;SDS011;2769;49.864;8.656;2023-07-13T01:12:20;3.97;;;1.90;;
5493;SDS011;2769;49.864;8.656;2023-07-13T01:14:47;5.00;;;1.77;;
5493;SDS011;2769;49.864;8.656;2023-07-13T01:17:15;1.83;;;1.40;;
5493;SDS011;2769;49.864;8.656;2023-07-13T01:19:44;3.83;;;2.13;;
5493;SDS011;2769;49.864;8.656;2023-07-13T01:22:15;1.63;;;1.43;;
5493;SDS011;2769;49.864;8.656;2023-07-13T01:24:45;6.27;;;1.70;;
5493;SDS011;2769;49.864;8.656;2023-07-13T01:27:19;2.50;;;2.27;;
5493;SDS011;2769;49.864;8.656;2023-07-13T01:29:48;2.10;;;1.97;;
5493;SDS011;2769;49.864;8.656;2023-07-13T01:32:17;4.93;;;2.10;;
5493;SDS011;2769;49.864;8.656;2023-07-13T01:34:49;3.20;;;2.00;;
5493;SDS011;2769;49.864;8.656;2023-07-13T01:37:22;2.03;;;1.73;;
5493;SDS011;2769;49.864;8.656;2023-07-13T01:39:53;7.63;;;2.20;;
5493;SDS011;2769;49.864;8.656;2023-07-13T01:42:22;1.40;;;1.30;;
5493;SDS011;2769;49.864;8.656;2023-07-13T01:44:50;1.87;;;1.77;;
5493;SDS011;2769;49.864;8.656;2023-07-13T01:47:18;6.00;;;1.90;;
5493;SDS011;2769;49.864;8.656;2023-07-13T01:49:46;3.53;;;1.80;;
5493;SDS011;2769;49.864;8.656;2023-07-13T01:52:14;2.27;;;1.90;;
5493;SDS011;2769;49.864;8.656;2023-07-13T01:54:43;4.30;;;2.10;;
5493;SDS011;2769;49.864;8.656;2023-07-13T01:57:11;2.10;;;1.53;;
5493;SDS011;2769;49.864;8.656;2023-07-13T01:59:39;3.80;;;1.60;;
5493;SDS011;2769;49.864;8.656;2023-07-13T02:02:07;7.13;;;1.90;;
5493;SDS011;2769;49.864;8.656;2023-07-13T02:04:35;6.57;;;2.00;;
5493;SDS011;2769;49.864;8.656;2023-07-13T02:07:04;2.23;;;1.70;;
5493;SDS011;2769;49.864;8.656;2023-07-13T02:09:32;4.30;;;1.77;;
5493;SDS011;2769;49.864;8.656;2023-07-13T02:12:02;3.77;;;1.90;;
5493;SDS011;2769;49.864;8.656;2023-07-13T02:14:32;2.80;;;2.00;;
5493;SDS011;2769;49.864;8.656;2023-07-13T02:17:00;2.27;;;1.90;;
5493;SDS011;2769;49.864;8.656;2023-07-13T02:19:28;1.90;;;1.73;;
5493;SDS011;2769;49.864;8.656;2023-07-13T02:21:56;2.63;;;1.70;;
5493;SDS011;2769;49.864;8.656;2023-07-13T02:24:24;2.90;;;1.90;;
5493;SDS011;2769;49.864;8.656;2023-07-13T02:26:52;6.83;;;2.10;;
5493;SDS011;2769;49.864;8.656;2023-07-13T02:29:21;2.53;;;1.70;;
5493;SDS011;2769;49.864;8.656;2023-07-13T02:31:50;2.37;;;1.93;;
5493;SDS011;2769;49.864;8.656;2023-07-13T02:34:18;2.93;;;2.03;;
5493;SDS011;2769;49.864;8.656;2023-07-13T02:36:46;3.50;;;1.70;;
5493;SDS011;2769;49.864;8.656;2023-07-13T02:39:14;2.70;;;1.70;;
5493;SDS011;2769;49.864;8.656;2023-07-13T02:41:42;4.53;;;1.93;;
5493;SDS011;2769;49.864;8.656;2023-07-13T02:44:13;4.97;;;2.37;;
5493;SDS011;2769;49.864;8.656;2023-07-13T02:46:42;4.03;;;2.00;;
5493;SDS011;2769;49.864;8.656;2023-07-13T02:49:12;3.40;;;1.83;;
5493;SDS011;2769;49.864;8.656;2023-07-13T02:51:41;5.43;;;1.90;;
5493;SDS011;2769;49.864;8.656;2023-07-13T02:54:09;2.57;;;1.90;;
5493;SDS011;2769;49.864;8.656;2023-07-13T02:56:40;1.83;;;1.73;;
5493;SDS011;2769;49.864;8.656;2023-07-13T02:59:09;7.50;;;1.67;;
5493;SDS011;2769;49.864;8.656;2023-07-13T03:01:38;2.07;;;1.83;;
5493;SDS011;2769;49.864;8.656;2023-07-13T03:04:08;5.97;;;1.90;;
5493;SDS011;2769;49.864;8.656;2023-07-13T03:06:36;4.50;;;2.20;;
5493;SDS011;2769;49.864;8.656;2023-07-13T03:09:04;2.43;;;1.80;;
5493;SDS011;2769;49.864;8.656;2023-07-13T03:11:36;3.83;;;1.70;;
5493;SDS011;2769;49.864;8.656;2023-07-13T03:14:27;2.93;;;2.00;;
5493;SDS011;2769;49.864;8.656;2023-07-13T03:16:55;3.63;;;1.97;;
5493;SDS011;2769;49.864;8.656;2023-07-13T03:19:28;3.80;;;1.90;;
5493;SDS011;2769;49.864;8.656;2023-07-13T03:21:56;2.87;;;2.47;;
5493;SDS011;2769;49.864;8.656;2023-07-13T03:24:24;4.83;;;2.10;;
5493;SDS011;2769;49.864;8.656;2023-07-13T03:26:52;2.07;;;1.93;;
5493;SDS011;2769;49.864;8.656;2023-07-13T03:29:21;3.77;;;2.10;;
5493;SDS011;2769;49.864;8.656;2023-07-13T03:31:50;3.40;;;2.50;;
5493;SDS011;2769;49.864;8.656;2023-07-13T03:34:21;2.67;;;1.73;;
5493;SDS011;2769;49.864;8.656;2023-07-13T03:36:53;4.70;;;1.97;;
5493;SDS011;2769;49.864;8.656;2023-07-13T03:39:21;1.83;;;1.70;;
5493;SDS011;2769;49.864;8.656;2023-07-13T03:41:53;2.30;;;2.03;;
5493;SDS011;2769;49.864;8.656;2023-07-13T03:44:21;4.50;;;2.30;;
5493;SDS011;2769;49.864;8.656;2023-07-13T03:46:53;2.57;;;2.37;;
5493;SDS011;2769;49.864;8.656;2023-07-13T03:49:22;1.90;;;1.80;;
5493;SDS011;2769;49.864;8.656;2023-07-13T03:51:51;5.70;;;2.50;;
5493;SDS011;2769;49.864;8.656;2023-07-13T03:54:20;2.90;;;1.80;;
5493;SDS011;2769;49.864;8.656;2023-07-13T03:56:48;4.00;;;2.23;;
5493;SDS011;2769;49.864;8.656;2023-07-13T03:59:17;5.33;;;2.30;;
5493;SDS011;2769;49.864;8.656;2023-07-13T04:01:45;3.33;;;2.20;;
5493;SDS011;2769;49.864;8.656;2023-07-13T04:04:13;3.07;;;2.10;;
5493;SDS011;2769;49.864;8.656;2023-07-13T04:06:42;1.70;;;1.60;;
5493;SDS011;2769;49.864;8.656;2023-07-13T04:09:12;3.37;;;2.60;;
5493;SDS011;2769;49.864;8.656;2023-07-13T04:11:41;3.33;;;2.10;;
5493;SDS011;2769;49.864;8.656;2023-07-13T04:14:09;4.53;;;2.10;;
5493;SDS011;2769;49.864;8.656;2023-07-13T04:16:37;3.60;;;2.30;;
5493;SDS011;2769;49.864;8.656;2023-07-13T04:19:05;2.10;;;2.00;;
5493;SDS011;2769;49.864;8.656;2023-07-13T04:21:34;6.73;;;2.37;;
5493;SDS011;2769;49.864;8.656;2023-07-13T04:24:02;5.63;;;2.00;;
5493;SDS011;2769;49.864;8.656;2023-07-13T04:26:32;12.43;;;2.20;;
5493;SDS011;2769;49.864;8.656;2023-07-13T04:29:02;4.53;;;2.40;;
5493;SDS011;2769;49.864;8.656;2023-07-13T04:31:30;2.10;;;2.00;;
5493;SDS011;2769;49.864;8.656;2023-07-13T04:33:58;4.50;;;2.10;;
5493;SDS011;2769;49.864;8.656;2023-07-13T04:36:26;3.77;;;1.97;;
5493;SDS011;2769;49.864;8.656;2023-07-13T04:38:54;1.90;;;1.80;;
5493;SDS011;2769;49.864;8.656;2023-07-13T04:41:22;2.70;;;1.87;;
5493;SDS011;2769;49.864;8.656;2023-07-13T04:43:52;3.23;;;1.90;;
5493;SDS011;2769;49.864;8.656;2023-07-13T04:46:22;2.97;;;2.07;;
5493;SDS011;2769;49.864;8.656;2023-07-13T04:48:53;1.93;;;1.80;;
5493;SDS011;2769;49.864;8.656;2023-07-13T04:51:21;4.10;;;1.90;;
5493;SDS011;2769;49.864;8.656;2023-07-13T04:53:49;3.63;;;1.70;;
5493;SDS011;2769;49.864;8.656;2023-07-13T04:56:23;2.63;;;1.70;;
5493;SDS011;2769;49.864;8.656;2023-07-13T04:58:52;4.03;;;2.03;;
5493;SDS011;2769;49.864;8.656;2023-07-13T05:01:20;5.10;;;1.83;;
5493;SDS011;2769;49.864;8.656;2023-07-13T05:03:49;2.80;;;2.00;;
5493;SDS011;2769;49.864;8.656;2023-07-13T05:06:17;2.20;;;2.00;;
5493;SDS011;2769;49.864;8.656;2023-07-13T05:08:45;5.63;;;1.87;;
5493;SDS011;2769;49.864;8.656;2023-07-13T05:11:13;1.87;;;1.77;;
5493;SDS011;2769;49.864;8.656;2023-07-13T05:13:40;3.83;;;1.63;;
5493;SDS011;2769;49.864;8.656;2023-07-13T05:16:10;3.10;;;1.90;;
5493;SDS011;2769;49.864;8.656;2023-07-13T05:18:38;6.77;;;1.93;;
5493;SDS011;2769;49.864;8.656;2023-07-13T05:21:10;2.30;;;2.10;;
5493;SDS011;2769;49.864;8.656;2023-07-13T05:23:39;3.40;;;1.70;;
5493;SDS011;2769;49.864;8.656;2023-07-13T05:26:08;6.67;;;2.00;;
5493;SDS011;2769;49.864;8.656;2023-07-13T05:28:36;3.07;;;1.83;;
5493;SDS011;2769;49.864;8.656;2023-07-13T05:31:06;6.17;;;1.90;;
5493;SDS011;2769;49.864;8.656;2023-07-13T05:33:37;4.23;;;1.77;;
5493;SDS011;2769;49.864;8.656;2023-07-13T05:36:05;2.17;;;1.80;;
5493;SDS011;2769;49.864;8.656;2023-07-13T05:38:33;4.10;;;1.50;;
5493;SDS011;2769;49.864;8.656;2023-07-13T05:41:01;6.50;;;1.97;;
5493;SDS011;2769;49.864;8.656;2023-07-13T05:43:31;3.00;;;1.90;;
5493;SDS011;2769;49.864;8.656;2023-07-13T05:45:59;5.17;;;1.80;;
5493;SDS011;2769;49.864;8.656;2023-07-13T05:48:27;3.13;;;1.60;;
5493;SDS011;2769;49.864;8.656;2023-07-13T05:50:57;2.63;;;1.90;;
5493;SDS011;2769;49.864;8.656;2023-07-13T05:53:25;2.90;;;1.70;;
5493;SDS011;2769;49.864;8.656;2023-07-13T05:55:53;4.00;;;2.10;;
5493;SDS011;2769;49.864;8.656;2023-07-13T05:58:21;2.73;;;1.63;;
5493;SDS011;2769;49.864;8.656;2023-07-13T06:00:57;2.20;;;2.00;;
5493;SDS011;2769;49.864;8.656;2023-07-13T06:03:27;6.10;;;1.70;;
5493;SDS011;2769;49.864;8.656;2023-07-13T06:05:54;7.13;;;1.57;;
5493;SDS011;2769;49.864;8.656;2023-07-13T06:08:24;2.20;;;1.60;;
5493;SDS011;2769;49.864;8.656;2023-07-13T06:10:52;4.43;;;1.40;;
5493;SDS011;2769;49.864;8.656;2023-07-13T06:13:20;3.50;;;1.50;;
5493;SDS011;2769;49.864;8.656;2023-07-13T06:15:49;3.43;;;1.70;;
5493;SDS011;2769;49.864;8.656;2023-07-13T06:18:17;7.37;;;1.80;;
5493;SDS011;2769;49.864;8.656;2023-07-13T06:20:45;8.63;;;1.63;;
5493;SDS011;2769;49.864;8.656;2023-07-13T06:23:14;3.37;;;1.50;;
5493;SDS011;2769;49.864;8.656;2023-07-13T06:25:42;4.23;;;1.60;;
5493;SDS011;2769;49.864;8.656;2023-07-13T06:28:10;2.43;;;1.90;;
5493;SDS011;2769;49.864;8.656;2023-07-13T06:30:38;3.57;;;1.80;;
5493;SDS011;2769;49.864;8.656;2023-07-13T06:33:07;6.53;;;1.90;;
5493;SDS011;2769;49.864;8.656;2023-07-13T06:35:35;4.50;;;1.90;;
5493;SDS011;2769;49.864;8.656;2023-07-13T06:38:05;2.40;;;1.20;;
5493;SDS011;2769;49.864;8.656;2023-07-13T06:40:34;2.10;;;1.27;;
5493;SDS011;2769;49.864;8.656;2023-07-13T06:43:02;3.20;;;1.43;;
5493;SDS011;2769;49.864;8.656;2023-07-13T06:45:32;2.93;;;1.43;;
5493;SDS011;2769;49.864;8.656;2023-07-13T06:48:00;2.60;;;1.30;;
5493;SDS011;2769;49.864;8.656;2023-07-13T06:50:28;1.90;;;1.43;;
5493;SDS011;2769;49.864;8.656;2023-07-13T06:52:57;4.80;;;1.47;;
5493;SDS011;2769;49.864;8.656;2023-07-13T06:55:26;4.70;;;1.30;;
5493;SDS011;2769;49.864;8.656;2023-07-13T06:57:55;4.93;;;1.47;;
5493;SDS011;2769;49.864;8.656;2023-07-13T07:00:23;3.70;;;1.57;;
5493;SDS011;2769;49.864;8.656;2023-07-13T07:02:51;2.03;;;1.50;;
5493;SDS011;2769;49.864;8.656;2023-07-13T07:05:19;3.97;;;1.40;;
5493;SDS011;2769;49.864;8.656;2023-07-13T07:07:49;2.60;;;1.30;;
5493;SDS011;2769;49.864;8.656;2023-07-13T07:10:17;7.43;;;1.60;;
5493;SDS011;2769;49.864;8.656;2023-07-13T07:12:45;4.17;;;1.90;;
5493;SDS011;2769;49.864;8.656;2023-07-13T07:15:14;7.20;;;1.80;;
5493;SDS011;2769;49.864;8.656;2023-07-13T07:17:43;4.53;;;1.40;;
5493;SDS011;2769;49.864;8.656;2023-07-13T07:20:11;2.10;;;1.30;;
5493;SDS011;2769;49.864;8.656;2023-07-13T07:22:39;3.13;;;1.37;;
5493;SDS011;2769;49.864;8.656;2023-07-13T07:25:08;1.50;;;1.40;;
5493;SDS011;2769;49.864;8.656;2023-07-13T07:27:36;2.40;;;1.20;;
5493;SDS011;2769;49.864;8.656;2023-07-13T07:30:07;6.80;;;1.23;;
5493;SDS011;2769;49.864;8.656;2023-07-13T07:32:39;3.33;;;1.10;;
5493;SDS011;2769;49.864;8.656;2023-07-13T07:35:23;6.83;;;1.33;;
5493;SDS011;2769;49.864;8.656;2023-07-13T07:37:51;2.13;;;1.10;;
5493;SDS011;2769;49.864;8.656;2023-07-13T07:40:19;2.00;;;1.20;;
5493;SDS011;2769;49.864;8.656;2023-07-13T07:42:49;2.20;;;1.23;;
5493;SDS011;2769;49.864;8.656;2023-07-13T07:45:17;1.67;;;1.07;;
5493;SDS011;2769;49.864;8.656;2023-07-13T07:47:47;1.30;;;1.17;;
5493;SDS011;2769;49.864;8.656;2023-07-13T07:50:15;1.63;;;1.20;;
5493;SDS011;2769;49.864;8.656;2023-07-13T07:52:43;1.30;;;1.20;;
5493;SDS011;2769;49.864;8.656;2023-07-13T07:55:11;1.30;;;1.20;;
5493;SDS011;2769;49.864;8.656;2023-07-13T07:57:42;1.73;;;0.90;;
5493;SDS011;2769;49.864;8.656;2023-07-13T08:00:13;3.20;;;1.10;;
5493;SDS011;2769;49.864;8.656;2023-07-13T08:02:47;2.43;;;1.27;;
5493;SDS011;2769;49.864;8.656;2023-07-13T08:05:18;4.00;;;1.23;;
5493;SDS011;2769;49.864;8.656;2023-07-13T08:08:01;2.50;;;1.30;;
5493;SDS011;2769;49.864;8.656;2023-07-13T08:10:29;2.50;;;1.20;;
5493;SDS011;2769;49.864;8.656;2023-07-13T08:12:57;5.57;;;1.40;;
5493;SDS011;2769;49.864;8.656;2023-07-13T08:15:28;4.97;;;1.30;;
5493;SDS011;2769;49.864;8.656;2023-07-13T08:17:57;3.40;;;1.50;;
5493;SDS011;2769;49.864;8.656;2023-07-13T08:20:25;4.30;;;1.30;;
5493;SDS011;2769;49.864;8.656;2023-07-13T08:22:53;4.17;;;1.20;;
5493;SDS011;2769;49.864;8.656;2023-07-13T08:25:21;1.57;;;1.10;;
5493;SDS011;2769;49.864;8.656;2023-07-13T08:27:49;8.13;;;1.60;;
5493;SDS011;2769;49.864;8.656;2023-07-13T08:30:17;2.13;;;1.30;;
5493;SDS011;2769;49.864;8.656;2023-07-13T08:32:45;2.40;;;1.30;;
5493;SDS011;2769;49.864;8.656;2023-07-13T08:35:15;5.30;;;1.10;;
5493;SDS011;2769;49.864;8.656;2023-07-13T08:37:43;1.20;;;1.10;;
5493;SDS011;2769;49.864;8.656;2023-07-13T08:40:11;6.90;;;1.50;;
5493;SDS011;2769;49.864;8.656;2023-07-13T08:42:39;7.47;;;1.57;;
5493;SDS011;2769;49.864;8.656;2023-07-13T08:45:13;3.17;;;1.10;;
5493;SDS011;2769;49.864;8.656;2023-07-13T08:47:45;3.27;;;1.20;;
5493;SDS011;2769;49.864;8.656;2023-07-13T08:50:19;1.40;;;1.20;;
5493;SDS011;2769;49.864;8.656;2023-07-13T08:52:48;1.43;;;1.00;;
5493;SDS011;2769;49.864;8.656;2023-07-13T08:55:17;1.67;;;1.20;;
5493;SDS011;2769;49.864;8.656;2023-07-13T08:57:48;5.40;;;1.97;;
5493;SDS011;2769;49.864;8.656;2023-07-13T09:00:18;3.57;;;1.20;;
5493;SDS011;2769;49.864;8.656;2023-07-13T09:02:48;2.70;;;0.97;;
5493;SDS011;2769;49.864;8.656;2023-07-13T09:05:22;1.40;;;1.27;;
5493;SDS011;2769;49.864;8.656;2023-07-13T09:08:01;1.87;;;1.20;;
5493;SDS011;2769;49.864;8.656;2023-07-13T09:10:35;5.00;;;1.20;;
5493;SDS011;2769;49.864;8.656;2023-07-13T09:13:12;3.50;;;1.20;;
5493;SDS011;2769;49.864;8.656;2023-07-13T09:15:47;3.27;;;1.10;;
5493;SDS011;2769;49.864;8.656;2023-07-13T09:18:18;3.13;;;1.30;;
5493;SDS011;2769;49.864;8.656;2023-07-13T09:20:54;4.77;;;1.47;;
5493;SDS011;2769;49.864;8.656;2023-07-13T09:23:24;2.60;;;1.57;;
5493;SDS011;2769;49.864;8.656;2023-07-13T09:25:58;3.07;;;1.20;;
5493;SDS011;2769;49.864;8.656;2023-07-13T09:28:29;1.50;;;1.00;;
5493;SDS011;2769;49.864;8.656;2023-07-13T09:31:01;1.30;;;1.17;;
5493;SDS011;2769;49.864;8.656;2023-07-13T09:33:31;3.07;;;1.23;;
5493;SDS011;2769;49.864;8.656;2023-07-13T09:36:04;4.60;;;1.23;;
5493;SDS011;2769;49.864;8.656;2023-07-13T09:38:45;4.13;;;1.30;;
5493;SDS011;2769;49.864;8.656;2023-07-13T09:41:17;1.70;;;1.20;;
5493;SDS011;2769;49.864;8.656;2023-07-13T09:44:00;1.10;;;1.00;;
5493;SDS011;2769;49.864;8.656;2023-07-13T09:46:29;1.27;;;1.07;;
5493;SDS011;2769;49.864;8.656;2023-07-13T09:48:57;1.20;;;1.10;;
5493;SDS011;2769;49.864;8.656;2023-07-13T09:51:26;1.33;;;1.10;;
5493;SDS011;2769;49.864;8.656;2023-07-13T09:53:54;3.30;;;1.40;;
5493;SDS011;2769;49.864;8.656;2023-07-13T09:56:24;1.57;;;0.87;;
5493;SDS011;2769;49.864;8.656;2023-07-13T09:58:54;3.40;;;1.23;;
5493;SDS011;2769;49.864;8.656;2023-07-13T10:01:34;2.03;;;1.13;;
5493;SDS011;2769;49.864;8.656;2023-07-13T10:04:10;2.00;;;1.50;;
5493;SDS011;2769;49.864;8.656;2023-07-13T10:06:41;2.20;;;1.20;;
5493;SDS011;2769;49.864;8.656;2023-07-13T10:09:10;2.47;;;1.10;;
5493;SDS011;2769;49.864;8.656;2023-07-13T10:11:40;1.30;;;1.20;;
5493;SDS011;2769;49.864;8.656;2023-07-13T10:14:10;1.27;;;1.10;;
5493;SDS011;2769;49.864;8.656;2023-07-13T10:16:41;2.43;;;1.17;;
5493;SDS011;2769;49.864;8.656;2023-07-13T10:19:11;2.50;;;1.60;;
5493;SDS011;2769;49.864;8.656;2023-07-13T10:21:46;2.00;;;1.40;;
5493;SDS011;2769;49.864;8.656;2023-07-13T10:24:19;3.23;;;1.53;;
5493;SDS011;2769;49.864;8.656;2023-07-13T10:26:49;4.13;;;1.23;;
5493;SDS011;2769;49.864;8.656;2023-07-13T10:29:22;3.13;;;1.13;;
5493;SDS011;2769;49.864;8.656;2023-07-13T10:31:51;2.37;;;1.10;;
5493;SDS011;2769;49.864;8.656;2023-07-13T10:34:19;3.10;;;1.40;;
5493;SDS011;2769;49.864;8.656;2023-07-13T10:36:51;4.83;;;1.30;;
5493;SDS011;2769;49.864;8.656;2023-07-13T10:39:20;6.33;;;1.07;;
5493;SDS011;2769;49.864;8.656;2023-07-13T10:41:51;5.43;;;1.30;;
5493;SDS011;2769;49.864;8.656;2023-07-13T10:44:21;2.27;;;1.40;;
5493;SDS011;2769;49.864;8.656;2023-07-13T10:46:54;3.30;;;1.50;;
5493;SDS011;2769;49.864;8.656;2023-07-13T10:49:22;2.53;;;1.20;;
5493;SDS011;2769;49.864;8.656;2023-07-13T10:51:52;1.30;;;1.17;;
5493;SDS011;2769;49.864;8.656;2023-07-13T10:54:21;2.07;;;1.30;;
5493;SDS011;2769;49.864;8.656;2023-07-13T10:56:52;1.13;;;1.03;;
5493;SDS011;2769;49.864;8.656;2023-07-13T10:59:24;1.80;;;1.20;;
5493;SDS011;2769;49.864;8.656;2023-07-13T11:01:55;1.90;;;1.00;;
5493;SDS011;2769;49.864;8.656;2023-07-13T11:04:26;2.90;;;1.40;;
5493;SDS011;2769;49.864;8.656;2023-07-13T11:06:58;4.50;;;1.37;;
5493;SDS011;2769;49.864;8.656;2023-07-13T11:09:34;2.50;;;1.33;;
5493;SDS011;2769;49.864;8.656;2023-07-13T11:12:06;13.67;;;1.47;;
5493;SDS011;2769;49.864;8.656;2023-07-13T11:15:04;2.87;;;1.13;;
5493;SDS011;2769;49.864;8.656;2023-07-13T11:17:36;1.17;;;1.10;;
5493;SDS011;2769;49.864;8.656;2023-07-13T11:20:10;3.63;;;1.30;;
5493;SDS011;2769;49.864;8.656;2023-07-13T11:22:49;3.70;;;1.37;;
5493;SDS011;2769;49.864;8.656;2023-07-13T11:25:24;2.57;;;1.60;;
5493;SDS011;2769;49.864;8.656;2023-07-13T11:33:53;1.47;;;1.13;;
5493;SDS011;2769;49.864;8.656;2023-07-13T11:36:27;2.17;;;1.20;;
5493;SDS011;2769;49.864;8.656;2023-07-13T11:39:02;2.53;;;1.20;;
5493;SDS011;2769;49.864;8.656;2023-07-13T11:41:34;1.70;;;1.23;;
5493;SDS011;2769;49.864;8.656;2023-07-13T11:44:06;2.93;;;1.07;;
5493;SDS011;2769;49.864;8.656;2023-07-13T11:46:43;1.80;;;1.20;;
5493;SDS011;2769;49.864;8.656;2023-07-13T11:49:13;1.40;;;1.10;;
5493;SDS011;2769;49.864;8.656;2023-07-13T11:51:43;1.30;;;1.20;;
5493;SDS011;2769;49.864;8.656;2023-07-13T11:54:26;2.90;;;0.90;;
5493;SDS011;2769;49.864;8.656;2023-07-13T11:56:56;1.23;;;1.10;;
5493;SDS011;2769;49.864;8.656;2023-07-13T11:59:27;1.00;;;0.90;;
5493;SDS011;2769;49.864;8.656;2023-07-13T12:01:56;4.20;;;0.97;;
5493;SDS011;2769;49.864;8.656;2023-07-13T12:04:27;2.00;;;1.33;;
5493;SDS011;2769;49.864;8.656;2023-07-13T12:06:58;1.03;;;0.90;;
5493;SDS011;2769;49.864;8.656;2023-07-13T12:09:33;2.27;;;1.17;;
5493;SDS011;2769;49.864;8.656;2023-07-13T12:12:03;3.53;;;1.07;;
5493;SDS011;2769;49.864;8.656;2023-07-13T12:14:33;4.70;;;1.30;;
5493;SDS011;2769;49.864;8.656;2023-07-13T12:17:04;1.47;;;1.20;;
5493;SDS011;2769;49.864;8.656;2023-07-13T12:19:40;1.10;;;1.00;;
5493;SDS011;2769;49.864;8.656;2023-07-13T12:22:09;1.80;;;1.23;;
5493;SDS011;2769;49.864;8.656;2023-07-13T12:24:41;1.93;;;1.00;;
5493;SDS011;2769;49.864;8.656;2023-07-13T12:27:19;1.20;;;1.10;;
5493;SDS011;2769;49.864;8.656;2023-07-13T12:29:50;1.23;;;1.13;;
5493;SDS011;2769;49.864;8.656;2023-07-13T12:32:20;1.10;;;1.00;;
5493;SDS011;2769;49.864;8.656;2023-07-13T12:34:52;6.03;;;1.30;;
5493;SDS011;2769;49.864;8.656;2023-07-13T12:37:21;2.13;;;1.17;;
5493;SDS011;2769;49.864;8.656;2023-07-13T12:39:51;1.70;;;1.20;;
5493;SDS011;2769;49.864;8.656;2023-07-13T12:42:19;4.33;;;1.47;;
5493;SDS011;2769;49.864;8.656;2023-07-13T12:44:53;1.77;;;1.33;;
5493;SDS011;2769;49.864;8.656;2023-07-13T12:47:21;2.50;;;1.03;;
5493;SDS011;2769;49.864;8.656;2023-07-13T12:49:53;2.10;;;1.53;;
5493;SDS011;2769;49.864;8.656;2023-07-13T12:52:22;1.97;;;1.17;;
5493;SDS011;2769;49.864;8.656;2023-07-13T12:54:56;2.37;;;1.23;;
5493;SDS011;2769;49.864;8.656;2023-07-13T12:57:29;3.13;;;1.13;;
5493;SDS011;2769;49.864;8.656;2023-07-13T12:59:57;1.63;;;1.03;;
5493;SDS011;2769;49.864;8.656;2023-07-13T13:02:27;2.00;;;1.30;;
5493;SDS011;2769;49.864;8.656;2023-07-13T13:04:57;3.23;;;1.10;;
5493;SDS011;2769;49.864;8.656;2023-07-13T13:07:25;1.67;;;1.43;;
5493;SDS011;2769;49.864;8.656;2023-07-13T13:09:53;8.50;;;1.47;;
5493;SDS011;2769;49.864;8.656;2023-07-13T13:12:23;1.57;;;1.10;;
5493;SDS011;2769;49.864;8.656;2023-07-13T13:14:53;1.53;;;1.20;;
5493;SDS011;2769;49.864;8.656;2023-07-13T13:17:21;1.83;;;1.50;;
5493;SDS011;2769;49.864;8.656;2023-07-13T13:19:51;1.43;;;1.33;;
5493;SDS011;2769;49.864;8.656;2023-07-13T13:22:20;1.00;;;0.90;;
5493;SDS011;2769;49.864;8.656;2023-07-13T13:24:49;1.60;;;1.20;;
5493;SDS011;2769;49.864;8.656;2023-07-13T13:27:17;2.17;;;1.27;;
5493;SDS011;2769;49.864;8.656;2023-07-13T13:29:47;3.43;;;1.23;;
5493;SDS011;2769;49.864;8.656;2023-07-13T13:32:18;2.93;;;1.33;;
5493;SDS011;2769;49.864;8.656;2023-07-13T13:34:46;1.43;;;1.03;;
5493;SDS011;2769;49.864;8.656;2023-07-13T13:37:17;1.63;;;1.20;;
5493;SDS011;2769;49.864;8.656;2023-07-13T13:39:46;2.07;;;1.20;;
5493;SDS011;2769;49.864;8.656;2023-07-13T13:42:33;4.10;;;1.33;;
5493;SDS011;2769;49.864;8.656;2023-07-13T13:45:03;5.83;;;1.60;;
5493;SDS011;2769;49.864;8.656;2023-07-13T13:47:32;1.43;;;1.33;;
5493;SDS011;2769;49.864;8.656;2023-07-13T13:50:01;1.30;;;1.20;;
5493;SDS011;2769;49.864;8.656;2023-07-13T13:52:32;4.30;;;1.50;;
5493;SDS011;2769;49.864;8.656;2023-07-13T13:55:00;2.70;;;1.50;;
5493;SDS011;2769;49.864;8.656;2023-07-13T13:57:28;1.93;;;1.63;;
5493;SDS011;2769;49.864;8.656;2023-07-13T13:59:57;3.00;;;1.27;;
5493;SDS011;2769;49.864;8.656;2023-07-13T14:02:27;2.50;;;1.40;;
5493;SDS011;2769;49.864;8.656;2023-07-13T14:04:58;2.80;;;1.17;;
5493;SDS011;2769;49.864;8.656;2023-07-13T14:07:29;2.43;;;1.20;;
5493;SDS011;2769;49.864;8.656;2023-07-13T14:09:58;1.67;;;1.10;;
5493;SDS011;2769;49.864;8.656;2023-07-13T14:12:27;2.40;;;1.23;;
5493;SDS011;2769;49.864;8.656;2023-07-13T14:14:56;7.17;;;1.17;;
5493;SDS011;2769;49.864;8.656;2023-07-13T14:17:26;2.13;;;1.27;;
5493;SDS011;2769;49.864;8.656;2023-07-13T14:19:55;2.73;;;1.40;;
5493;SDS011;2769;49.864;8.656;2023-07-13T14:22:24;1.33;;;1.20;;
5493;SDS011;2769;49.864;8.656;2023-07-13T14:24:52;3.43;;;1.30;;
5493;SDS011;2769;49.864;8.656;2023-07-13T14:27:21;3.40;;;1.30;;
5493;SDS011;2769;49.864;8.656;2023-07-13T14:29:49;1.63;;;1.10;;
5493;SDS011;2769;49.864;8.656;2023-07-13T14:32:17;1.10;;;1.00;;
5493;SDS011;2769;49.864;8.656;2023-07-13T14:34:49;1.10;;;1.00;;
5493;SDS011;2769;49.864;8.656;2023-07-13T14:37:18;1.57;;;1.00;;
5493;SDS011;2769;49.864;8.656;2023-07-13T14:39:46;3.30;;;1.40;;
5493;SDS011;2769;49.864;8.656;2023-07-13T14:42:15;1.77;;;1.17;;
5493;SDS011;2769;49.864;8.656;2023-07-13T14:44:43;1.93;;;1.27;;
5493;SDS011;2769;49.864;8.656;2023-07-13T14:47:11;1.93;;;1.37;;
5493;SDS011;2769;49.864;8.656;2023-07-13T14:49:40;5.30;;;1.60;;
5493;SDS011;2769;49.864;8.656;2023-07-13T14:52:12;2.03;;;1.23;;
5493;SDS011;2769;49.864;8.656;2023-07-13T14:54:41;1.37;;;1.13;;
5493;SDS011;2769;49.864;8.656;2023-07-13T14:57:10;1.70;;;1.23;;
5493;SDS011;2769;49.864;8.656;2023-07-13T14:59:39;1.80;;;1.13;;
5493;SDS011;2769;49.864;8.656;2023-07-13T15:02:14;2.87;;;1.27;;
5493;SDS011;2769;49.864;8.656;2023-07-13T15:04:44;8.20;;;1.30;;
5493;SDS011;2769;49.864;8.656;2023-07-13T15:07:13;2.73;;;1.33;;
5493;SDS011;2769;49.864;8.656;2023-07-13T15:09:43;2.13;;;1.20;;
5493;SDS011;2769;49.864;8.656;2023-07-13T15:12:11;4.47;;;1.27;;
5493;SDS011;2769;49.864;8.656;2023-07-13T15:14:40;3.37;;;1.00;;
5493;SDS011;2769;49.864;8.656;2023-07-13T15:17:16;1.30;;;1.20;;
5493;SDS011;2769;49.864;8.656;2023-07-13T15:19:49;2.93;;;1.40;;
5493;SDS011;2769;49.864;8.656;2023-07-13T15:22:19;1.50;;;1.30;;
5493;SDS011;2769;49.864;8.656;2023-07-13T15:24:47;3.07;;;1.47;;
5493;SDS011;2769;49.864;8.656;2023-07-13T15:27:18;4.30;;;1.70;;
5493;SDS011;2769;49.864;8.656;2023-07-13T15:29:46;2.00;;;1.30;;
5493;SDS011;2769;49.864;8.656;2023-07-13T15:32:14;2.83;;;1.10;;
5493;SDS011;2769;49.864;8.656;2023-07-13T15:34:42;1.13;;;1.03;;
5493;SDS011;2769;49.864;8.656;2023-07-13T15:37:12;1.50;;;1.10;;
5493;SDS011;2769;49.864;8.656;2023-07-13T15:39:43;6.20;;;1.10;;
5493;SDS011;2769;49.864;8.656;2023-07-13T15:42:13;1.77;;;1.13;;